createdAt,value
2024-02-19T06:37:29.294Z,44.68
2024-02-19T06:38:34.618Z,46.46
2024-02-19T06:39:42.132Z,46.88
2024-02-19T06:40:48.867Z,47.25
2024-02-19T06:41:54.091Z,45.27
2024-02-19T06:43:00.805Z,46.19
2024-02-19T06:44:06.096Z,46.59
2024-02-19T06:45:13.636Z,46.50
2024-02-19T06:46:19.144Z,45.86
2024-02-19T06:47:25.775Z,44.45
2024-02-19T06:48:31.051Z,46.62
2024-02-19T06:49:37.611Z,46.85
2024-02-19T06:50:43.043Z,43.81
2024-02-19T06:51:49.561Z,45.97
2024-02-19T06:52:56.507Z,43.96
2024-02-19T06:54:03.115Z,46.21
2024-02-19T06:55:09.045Z,46.43
2024-02-19T06:56:16.317Z,46.17
2024-02-19T06:57:21.534Z,45.43
2024-02-19T06:58:28.183Z,46.11
2024-02-19T06:59:33.618Z,45.47
2024-02-19T07:00:40.312Z,46.21
2024-02-19T07:01:45.610Z,46.05
2024-02-19T07:02:52.184Z,45.76
2024-02-19T07:03:57.414Z,45.57
2024-02-19T07:05:04.510Z,45.60
2024-02-19T07:06:10.303Z,45.35
2024-02-19T07:07:17.200Z,44.54
2024-02-19T07:08:24.161Z,44.82
2024-02-19T07:09:30.706Z,46.51
2024-02-19T07:10:36.069Z,46.13
2024-02-19T07:11:42.861Z,45.87
2024-02-19T07:12:48.184Z,45.97
2024-02-19T07:13:57.970Z,46.38
2024-02-19T07:15:03.192Z,47.18
2024-02-19T07:16:10.268Z,46.64
2024-02-19T07:17:15.552Z,46.02
2024-02-19T07:18:22.118Z,46.18
2024-02-19T07:19:27.578Z,46.63
2024-02-19T07:20:34.253Z,45.95
2024-02-19T07:21:39.837Z,46.82
2024-02-19T07:22:46.367Z,45.23
2024-02-19T07:23:53.259Z,45.78
2024-02-19T07:25:09.985Z,46.88
2024-02-19T07:26:22.312Z,46.23
2024-02-19T07:27:29.414Z,46.44
2024-02-19T07:28:34.677Z,46.07
2024-02-19T07:29:41.359Z,46.61
2024-02-19T07:30:46.631Z,47.08
2024-02-19T07:31:53.816Z,46.81
2024-02-19T07:32:59.153Z,46.34
2024-02-19T07:34:05.962Z,46.24
2024-02-19T07:35:11.624Z,46.18
2024-02-19T07:36:18.376Z,45.01
2024-02-19T07:37:23.931Z,46.87
2024-02-19T07:38:30.625Z,47.23
2024-02-19T07:39:37.613Z,47.16
2024-02-19T07:40:44.449Z,46.30
2024-02-19T07:41:49.834Z,45.35
2024-02-19T07:42:56.538Z,45.72
2024-02-19T07:44:01.882Z,45.94
2024-02-19T07:45:09.030Z,45.92
2024-02-19T07:46:14.663Z,45.03
2024-02-19T07:47:21.379Z,45.80
2024-02-19T07:48:26.949Z,46.62
2024-02-19T07:49:33.962Z,47.53
2024-02-19T07:50:39.469Z,47.24
2024-02-19T07:51:46.329Z,47.61
2024-02-19T07:52:51.796Z,47.82
2024-02-19T07:53:58.425Z,47.85
2024-02-19T07:55:05.942Z,48.44
2024-02-19T07:56:12.734Z,48.05
2024-02-19T07:57:18.117Z,48.70
2024-02-19T07:58:24.802Z,48.57
2024-02-19T07:59:30.224Z,48.06
2024-02-19T08:00:37.443Z,48.02
2024-02-19T08:01:42.903Z,48.84
2024-02-19T08:02:49.537Z,48.27
2024-02-19T08:03:54.989Z,48.73
2024-02-19T08:05:02.080Z,48.87
2024-02-19T08:06:09.862Z,48.80
2024-02-19T08:07:16.599Z,49.35
2024-02-19T08:08:22.067Z,48.78
2024-02-19T08:09:28.680Z,49.37
2024-02-19T08:10:35.912Z,49.21
2024-02-19T08:11:42.712Z,48.51
2024-02-19T08:12:48.263Z,49.43
2024-02-19T08:13:55.417Z,48.47
2024-02-19T08:15:00.978Z,48.65
2024-02-19T08:16:08.261Z,49.40
2024-02-19T08:17:13.613Z,48.99
2024-02-19T08:18:20.344Z,48.00
2024-02-19T08:19:25.807Z,48.97
2024-02-19T08:20:32.567Z,48.42
2024-02-19T08:21:37.971Z,49.11
2024-02-19T08:22:46.918Z,47.83
2024-02-19T08:23:52.666Z,48.30
2024-02-19T08:24:59.458Z,47.88
2024-02-19T08:26:06.762Z,49.47
2024-02-19T08:27:13.527Z,48.96
2024-02-19T08:28:18.982Z,49.45
2024-02-19T08:29:25.610Z,49.36
2024-02-19T08:30:30.968Z,49.33
2024-02-19T08:31:37.624Z,49.96
2024-02-19T08:32:44.466Z,49.66
2024-02-19T08:33:51.550Z,49.42
2024-02-19T08:34:57.049Z,48.65
2024-02-19T08:36:04.918Z,48.67
2024-02-19T08:37:10.246Z,49.47
2024-02-19T08:38:17.619Z,49.18
2024-02-19T08:39:23.106Z,49.68
2024-02-19T08:40:29.796Z,49.19
2024-02-19T08:41:36.701Z,48.66
2024-02-19T08:42:43.262Z,48.00
2024-02-19T08:43:48.608Z,47.21
2024-02-19T08:44:55.136Z,49.49
2024-02-19T08:46:00.476Z,47.53
2024-02-19T08:47:10.455Z,48.46
2024-02-19T08:48:15.907Z,49.14
2024-02-19T08:49:22.605Z,48.62
2024-02-19T08:50:27.896Z,48.32
2024-02-19T08:51:34.488Z,48.91
2024-02-19T08:52:39.755Z,48.82
2024-02-19T08:53:49.276Z,48.05
2024-02-19T08:54:58.826Z,47.33
2024-02-19T08:56:05.513Z,48.37
2024-02-19T08:57:12.401Z,48.68
2024-02-19T08:58:19.009Z,48.68
2024-02-19T08:59:24.174Z,46.01
2024-02-19T09:00:32.904Z,47.12
2024-02-19T09:01:39.562Z,46.66
2024-02-19T09:02:46.260Z,47.87
2024-02-19T09:03:51.860Z,48.21
2024-02-19T09:04:58.584Z,47.93
2024-02-19T09:06:03.833Z,48.08
2024-02-19T09:07:10.572Z,48.49
2024-02-19T09:08:15.880Z,48.37
2024-02-19T09:09:22.498Z,47.50
2024-02-19T09:10:27.718Z,48.51
2024-02-19T09:11:34.342Z,47.91
2024-02-19T09:12:41.420Z,48.71
2024-02-19T09:13:48.000Z,48.93
2024-02-19T09:14:53.265Z,48.03
2024-02-19T09:15:58.522Z,47.63
2024-02-19T09:17:05.500Z,47.66
2024-02-19T09:18:10.871Z,48.43
2024-02-19T09:19:19.076Z,49.19
2024-02-19T09:20:24.425Z,49.15
2024-02-19T09:21:31.068Z,48.95
2024-02-19T09:22:36.337Z,48.50
2024-02-19T09:23:42.880Z,49.68
2024-02-19T09:24:50.304Z,49.90
2024-02-19T09:25:56.891Z,50.08
2024-02-19T09:27:02.155Z,49.26
2024-02-19T09:28:11.106Z,49.41
2024-02-19T09:29:17.620Z,49.23
2024-02-19T09:30:24.833Z,50.09
2024-02-19T09:31:30.099Z,50.10
2024-02-19T09:32:36.747Z,50.32
2024-02-19T09:33:42.169Z,49.35
2024-02-19T09:34:49.007Z,49.14
2024-02-19T09:35:54.368Z,49.83
2024-02-19T09:37:02.511Z,49.36
2024-02-19T09:38:08.244Z,49.25
2024-02-19T09:39:14.898Z,49.38
2024-02-19T09:40:20.942Z,49.16
2024-02-19T09:41:27.864Z,48.45
2024-02-19T09:42:33.420Z,48.64
2024-02-19T09:43:41.904Z,49.78
2024-02-19T09:44:47.432Z,49.47
2024-02-19T09:45:52.765Z,49.79
2024-02-19T09:47:01.256Z,49.74
2024-02-19T09:48:08.337Z,50.51
2024-02-19T09:49:16.424Z,50.20
2024-02-19T09:50:21.974Z,50.18
2024-02-19T09:51:36.584Z,49.90
2024-02-19T09:52:48.098Z,49.30
2024-02-19T09:53:55.468Z,49.38
2024-02-19T09:55:00.876Z,49.96
2024-02-19T09:56:09.631Z,50.29
2024-02-19T09:57:15.319Z,50.75
2024-02-19T09:58:22.070Z,50.14
2024-02-19T09:59:31.421Z,49.88
2024-02-19T10:00:38.270Z,50.43
2024-02-19T10:01:46.776Z,50.43
2024-02-19T10:02:56.021Z,50.51
2024-02-19T10:04:01.475Z,50.71
2024-02-19T10:05:10.227Z,50.18
2024-02-19T10:06:15.921Z,50.04
2024-02-19T10:07:23.338Z,50.10
2024-02-19T10:08:28.818Z,50.50
2024-02-19T10:09:34.213Z,49.88
2024-02-19T10:10:43.017Z,50.09
2024-02-19T10:11:49.818Z,50.42
2024-02-19T10:12:56.765Z,50.76
2024-02-19T10:14:02.180Z,50.03
2024-02-19T10:15:11.302Z,50.21
2024-02-19T10:16:16.885Z,49.51
2024-02-19T10:17:26.733Z,49.82
2024-02-19T10:18:32.283Z,50.02
2024-02-19T10:19:40.406Z,50.54
2024-02-19T10:20:48.441Z,50.57
2024-02-19T10:21:55.215Z,50.24
2024-02-19T10:23:00.678Z,50.40
2024-02-19T10:24:07.631Z,50.84
2024-02-19T10:25:14.888Z,50.87
2024-02-19T10:26:21.581Z,50.95
2024-02-19T10:27:26.946Z,51.64
2024-02-19T10:28:34.376Z,51.21
2024-02-19T10:29:39.651Z,51.68
2024-02-19T10:30:48.052Z,51.70
2024-02-19T10:31:53.385Z,51.72
2024-02-19T10:33:00.127Z,51.92
2024-02-19T10:34:05.852Z,52.02
2024-02-19T10:35:12.830Z,52.31
2024-02-19T10:36:21.189Z,52.12
2024-02-19T10:37:28.174Z,52.17
2024-02-19T10:38:33.514Z,52.55
2024-02-19T10:39:40.253Z,52.45
2024-02-19T10:40:45.621Z,52.61
2024-02-19T10:41:52.495Z,52.76
2024-02-19T10:42:58.635Z,52.68
2024-02-19T10:44:05.933Z,52.67
2024-02-19T10:45:12.560Z,52.77
2024-02-19T10:46:22.672Z,53.21
2024-02-19T10:47:28.575Z,52.98
2024-02-19T10:48:35.373Z,53.44
2024-02-19T10:49:40.884Z,53.37
2024-02-19T10:50:47.658Z,53.40
2024-02-19T10:51:53.932Z,53.47
2024-02-19T10:53:01.153Z,53.72
2024-02-19T10:54:07.149Z,54.26
2024-02-19T10:55:17.156Z,54.38
2024-02-19T10:56:25.218Z,54.12
2024-02-19T10:57:34.385Z,54.02
2024-02-19T10:58:39.762Z,54.46
2024-02-19T10:59:46.911Z,54.38
2024-02-19T11:00:53.655Z,54.85
2024-02-19T11:02:12.533Z,54.77
2024-02-19T11:03:17.999Z,54.92
2024-02-19T11:04:26.153Z,54.92
2024-02-19T11:05:37.115Z,55.14
2024-02-19T11:06:44.315Z,54.68
2024-02-19T11:07:49.722Z,55.46
2024-02-19T11:08:58.664Z,55.24
2024-02-19T11:10:07.212Z,55.33
2024-02-19T11:11:14.032Z,55.53
2024-02-19T11:12:20.802Z,55.57
2024-02-19T11:13:29.383Z,55.75
2024-02-19T11:14:35.212Z,55.43
2024-02-19T11:15:45.601Z,55.43
2024-02-19T11:16:51.116Z,56.10
2024-02-19T11:18:00.891Z,55.93
2024-02-19T11:19:06.575Z,56.17
2024-02-19T11:20:12.842Z,56.11
2024-02-19T11:21:19.553Z,55.96
2024-02-19T11:22:32.014Z,55.65
2024-02-19T11:23:38.720Z,56.63
2024-02-19T11:24:44.381Z,55.97
2024-02-19T11:25:51.302Z,56.16
2024-02-19T11:26:56.739Z,55.84
2024-02-19T11:28:05.011Z,55.57
2024-02-19T11:29:13.730Z,55.80
2024-02-19T11:30:22.509Z,55.48
2024-02-19T11:31:28.105Z,56.08
2024-02-19T11:32:35.154Z,55.69
2024-02-19T11:33:42.999Z,55.89
2024-02-19T11:34:49.853Z,55.32
2024-02-19T11:35:59.578Z,55.30
2024-02-19T11:37:07.985Z,55.74
2024-02-19T11:38:13.387Z,56.12
2024-02-19T11:39:20.318Z,55.53
2024-02-19T11:40:30.152Z,56.13
2024-02-19T11:41:36.844Z,56.21
2024-02-19T11:42:42.313Z,56.48
2024-02-19T11:43:49.061Z,56.60
2024-02-19T11:44:54.414Z,56.25
2024-02-19T11:46:01.218Z,56.90
2024-02-19T11:47:06.818Z,56.38
2024-02-19T11:48:13.980Z,56.72
2024-02-19T11:49:22.031Z,57.06
2024-02-19T11:50:30.377Z,57.13
2024-02-19T11:51:38.289Z,56.67
2024-02-19T11:52:44.925Z,56.64
2024-02-19T11:53:52.504Z,57.21
2024-02-19T11:54:57.910Z,57.45
2024-02-19T11:56:04.797Z,57.21
2024-02-19T11:57:12.520Z,57.89
2024-02-19T11:58:19.195Z,57.25
2024-02-19T11:59:24.654Z,58.22
2024-02-19T12:00:33.408Z,57.76
2024-02-19T12:01:39.622Z,58.46
2024-02-19T12:02:51.149Z,58.78
2024-02-19T12:03:56.507Z,58.25
2024-02-19T12:05:05.091Z,58.42
2024-02-19T12:06:12.183Z,58.54
2024-02-19T12:07:18.967Z,58.67
2024-02-19T12:08:25.291Z,59.33
2024-02-19T12:09:31.967Z,58.92
2024-02-19T12:10:37.434Z,58.38
2024-02-19T12:11:45.919Z,59.08
2024-02-19T12:12:53.278Z,59.91
2024-02-19T12:14:00.079Z,59.17
2024-02-19T12:15:05.975Z,60.02
2024-02-19T12:16:13.607Z,59.75
2024-02-19T12:17:19.111Z,60.22
2024-02-19T12:18:25.990Z,60.03
2024-02-19T12:19:31.642Z,59.90
2024-02-19T12:20:40.392Z,61.09
2024-02-19T12:21:45.835Z,60.71
2024-02-19T12:22:52.420Z,60.52
2024-02-19T12:23:57.955Z,60.55
2024-02-19T12:25:04.633Z,60.91
2024-02-19T12:26:10.034Z,60.70
2024-02-19T12:27:16.702Z,61.48
2024-02-19T12:28:22.001Z,60.97
2024-02-19T12:29:28.667Z,60.78
2024-02-19T12:30:34.015Z,61.38
2024-02-19T12:31:40.644Z,61.30
2024-02-19T12:32:48.557Z,61.70
2024-02-19T12:33:55.479Z,61.82
2024-02-19T12:35:01.144Z,61.77
2024-02-19T12:36:11.752Z,63.11
2024-02-19T12:37:18.109Z,61.41
2024-02-19T12:38:26.001Z,61.74
2024-02-19T12:39:33.060Z,63.60
2024-02-19T12:40:40.594Z,61.62
2024-02-19T12:41:49.559Z,62.85
2024-02-19T12:42:56.260Z,62.77
2024-02-19T12:44:01.610Z,63.13
2024-02-19T12:45:09.263Z,62.58
2024-02-19T12:46:15.338Z,62.27
2024-02-19T12:47:22.357Z,63.91
2024-02-19T12:48:27.803Z,63.80
2024-02-19T12:49:37.446Z,63.64
2024-02-19T12:50:44.567Z,63.32
2024-02-19T12:51:54.505Z,64.40
2024-02-19T12:53:00.057Z,65.20
2024-02-19T12:54:07.231Z,64.24
2024-02-19T12:55:17.752Z,63.83
2024-02-19T12:56:26.121Z,64.16
2024-02-19T12:57:31.442Z,63.35
2024-02-19T12:58:38.416Z,63.53
2024-02-19T12:59:43.830Z,64.50
2024-02-19T13:00:50.602Z,63.51
2024-02-19T13:01:56.149Z,64.01
2024-02-19T13:03:02.880Z,63.76
2024-02-19T13:04:08.867Z,64.89
2024-02-19T13:05:15.648Z,64.85
2024-02-19T13:06:22.083Z,63.48
2024-02-19T13:07:30.941Z,64.97
2024-02-19T13:08:36.430Z,64.95
2024-02-19T13:09:44.343Z,65.21
2024-02-19T13:10:50.382Z,65.60
2024-02-19T13:11:57.971Z,66.04
2024-02-19T13:13:04.590Z,65.72
2024-02-19T13:14:12.495Z,64.88
2024-02-19T13:15:17.912Z,65.53
2024-02-19T13:16:24.830Z,66.55
2024-02-19T13:17:39.344Z,66.00
2024-02-19T13:18:50.534Z,66.11
2024-02-19T13:19:56.049Z,65.79
2024-02-19T13:21:02.866Z,65.20
2024-02-19T13:22:08.456Z,64.93
2024-02-19T13:23:16.799Z,66.43
2024-02-19T13:24:22.183Z,66.92
2024-02-19T13:25:28.921Z,65.73
2024-02-19T13:26:34.287Z,65.54
2024-02-19T13:27:41.368Z,66.80
2024-02-19T13:28:46.692Z,65.70
2024-02-19T13:29:53.353Z,66.40
2024-02-19T13:30:58.712Z,65.83
2024-02-19T13:32:05.346Z,65.70
2024-02-19T13:33:10.925Z,65.54
2024-02-19T13:34:18.285Z,67.26
2024-02-19T13:35:23.947Z,65.83
2024-02-19T13:36:31.449Z,66.84
2024-02-19T13:37:37.337Z,66.72
2024-02-19T13:38:48.249Z,67.19
2024-02-19T13:39:54.342Z,66.75
2024-02-19T13:41:05.574Z,67.78
2024-02-19T13:42:11.892Z,68.25
2024-02-19T13:43:19.657Z,67.11
2024-02-19T13:44:25.902Z,67.01
2024-02-19T13:45:37.272Z,68.48
2024-02-19T13:46:46.793Z,66.34
2024-02-19T13:47:54.112Z,67.80
2024-02-19T13:49:03.469Z,68.61
2024-02-19T13:50:11.390Z,68.05
2024-02-19T13:51:18.536Z,67.36
2024-02-19T13:52:26.465Z,66.94
2024-02-19T13:53:32.462Z,67.82
2024-02-19T13:54:41.371Z,69.00
2024-02-19T13:55:46.951Z,67.74
2024-02-19T13:56:57.936Z,67.80
2024-02-19T13:58:03.811Z,66.75
2024-02-19T13:59:12.906Z,67.19
2024-02-19T14:00:18.660Z,66.48
2024-02-19T14:01:40.505Z,67.67
2024-02-19T14:02:47.726Z,67.57
2024-02-19T14:03:55.117Z,68.37
2024-02-19T14:05:01.194Z,67.97
2024-02-19T14:06:09.303Z,67.58
2024-02-19T14:07:15.216Z,67.76
2024-02-19T14:08:23.518Z,67.34
2024-02-19T14:09:29.338Z,67.78
2024-02-19T14:10:38.584Z,68.35
2024-02-19T14:11:44.340Z,67.47
2024-02-19T14:12:52.105Z,67.99
2024-02-19T14:14:02.109Z,67.44
2024-02-19T14:15:10.910Z,67.39
2024-02-19T14:16:16.331Z,67.46
2024-02-19T14:17:23.135Z,67.69
2024-02-19T14:18:28.520Z,69.02
2024-02-19T14:19:35.455Z,67.60
2024-02-19T14:20:40.976Z,68.07
2024-02-19T14:21:47.770Z,67.93
2024-02-19T14:22:53.425Z,69.58
2024-02-19T14:24:00.212Z,67.34
2024-02-19T14:25:06.813Z,68.24
2024-02-19T14:26:15.412Z,68.12
2024-02-19T14:27:20.901Z,68.35
2024-02-19T14:28:27.714Z,68.92
2024-02-19T14:29:34.606Z,68.05
2024-02-19T14:30:41.455Z,67.40
2024-02-19T14:31:46.834Z,67.49
2024-02-19T14:32:53.633Z,67.99
2024-02-19T14:33:59.055Z,67.38
2024-02-19T14:35:05.961Z,67.00
2024-02-19T14:36:11.853Z,68.18
2024-02-19T14:37:21.874Z,68.37
2024-02-19T14:38:27.728Z,67.54
2024-02-19T14:39:34.414Z,67.39
2024-02-19T14:40:40.187Z,67.25
2024-02-19T14:41:48.958Z,68.18
2024-02-19T14:42:54.460Z,67.86
2024-02-19T14:44:01.202Z,67.62
2024-02-19T14:45:08.597Z,67.29
2024-02-19T14:46:15.298Z,67.98
2024-02-19T14:47:20.759Z,67.33
2024-02-19T14:48:27.771Z,67.47
2024-02-19T14:49:33.617Z,67.87
2024-02-19T14:50:48.947Z,67.97
2024-02-19T14:51:54.630Z,67.71
2024-02-19T14:53:01.559Z,67.77
2024-02-19T14:54:07.140Z,67.96
2024-02-19T14:55:14.466Z,67.72
2024-02-19T14:56:19.974Z,67.41
2024-02-19T14:57:28.445Z,67.77
2024-02-19T14:58:35.396Z,68.03
2024-02-19T14:59:44.667Z,67.54
2024-02-19T15:00:51.721Z,67.68
2024-02-19T15:01:58.580Z,67.47
2024-02-19T15:03:03.971Z,67.87
2024-02-19T15:04:14.710Z,67.70
2024-02-19T15:05:22.746Z,67.97
2024-02-19T15:06:30.764Z,68.33
2024-02-19T15:07:36.597Z,67.92
2024-02-19T15:08:46.558Z,68.04
2024-02-19T15:09:51.979Z,67.71
2024-02-19T15:10:58.735Z,67.71
2024-02-19T15:12:04.142Z,68.22
2024-02-19T15:13:12.651Z,68.72
2024-02-19T15:14:19.722Z,68.10
2024-02-19T15:15:26.795Z,68.29
2024-02-19T15:16:32.303Z,67.59
2024-02-19T15:17:39.295Z,68.14
2024-02-19T15:18:44.917Z,68.46
2024-02-19T15:19:51.760Z,68.63
2024-02-19T15:20:57.151Z,68.46
2024-02-19T15:22:04.020Z,68.49
2024-02-19T15:23:09.415Z,68.89
2024-02-19T15:24:16.283Z,68.27
2024-02-19T15:25:22.075Z,68.95
2024-02-19T15:26:28.892Z,68.89
2024-02-19T15:27:34.668Z,68.48
2024-02-19T15:28:43.171Z,69.54
2024-02-19T15:29:48.512Z,69.46
2024-02-19T15:30:55.291Z,69.30
2024-02-19T15:32:00.758Z,68.89
2024-02-19T15:33:07.823Z,68.69
2024-02-19T15:34:13.407Z,69.42
2024-02-19T15:35:20.416Z,68.60
2024-02-19T15:36:25.882Z,70.35
2024-02-19T15:37:32.551Z,69.63
2024-02-19T15:38:37.886Z,69.24
2024-02-19T15:39:44.513Z,69.68
2024-02-19T15:40:49.845Z,69.23
2024-02-19T15:41:56.472Z,69.47
2024-02-19T15:43:01.845Z,69.55
2024-02-19T15:44:10.531Z,70.14
2024-02-19T15:45:16.296Z,69.24
2024-02-19T15:46:22.875Z,70.06
2024-02-19T15:47:28.243Z,69.43
2024-02-19T15:48:35.475Z,69.98
2024-02-19T15:49:41.028Z,69.64
2024-02-19T15:50:47.768Z,70.14
2024-02-19T15:51:53.442Z,69.67
2024-02-19T15:53:05.602Z,69.99
2024-02-19T15:54:12.525Z,70.24
2024-02-19T15:55:19.203Z,69.63
2024-02-19T15:56:24.571Z,69.97
2024-02-19T15:57:31.212Z,69.54
2024-02-19T15:58:36.894Z,70.05
2024-02-19T15:59:45.469Z,69.85
2024-02-19T16:00:51.252Z,69.56
2024-02-19T16:02:00.681Z,69.55
2024-02-19T16:03:06.628Z,69.73
2024-02-19T16:04:13.318Z,69.83
2024-02-19T16:05:18.918Z,69.42
2024-02-19T16:06:30.335Z,71.09
2024-02-19T16:07:35.689Z,70.38
2024-02-19T16:08:43.674Z,70.42
2024-02-19T16:09:49.028Z,70.43
2024-02-19T16:10:55.834Z,70.06
2024-02-19T16:12:01.282Z,70.04
2024-02-19T16:13:07.998Z,70.47
2024-02-19T16:14:13.417Z,70.00
2024-02-19T16:15:21.714Z,70.91
2024-02-19T16:16:27.089Z,70.39
2024-02-19T16:17:33.719Z,70.58
2024-02-19T16:18:39.525Z,70.41
2024-02-19T16:19:46.365Z,70.61
2024-02-19T16:20:54.905Z,70.84
2024-02-19T16:22:01.640Z,70.47
2024-02-19T16:23:07.301Z,70.65
2024-02-19T16:24:14.177Z,70.92
2024-02-19T16:25:19.557Z,70.93
2024-02-19T16:26:26.521Z,70.50
2024-02-19T16:27:31.981Z,70.86
2024-02-19T16:28:37.376Z,70.49
2024-02-19T16:29:44.122Z,70.42
2024-02-19T16:30:51.338Z,72.20
2024-02-19T16:31:57.963Z,70.61
2024-02-19T16:33:03.721Z,71.10
2024-02-19T16:34:10.562Z,70.86
2024-02-19T16:35:16.258Z,71.02
2024-02-19T16:36:26.560Z,70.55
2024-02-19T16:37:32.286Z,71.02
2024-02-19T16:38:40.082Z,71.07
2024-02-19T16:39:50.353Z,70.60
2024-02-19T16:40:58.211Z,71.14
2024-02-19T16:42:06.448Z,72.15
2024-02-19T16:43:13.720Z,71.65
2024-02-19T16:44:19.244Z,71.00
2024-02-19T16:45:26.511Z,71.43
2024-02-19T16:46:33.482Z,71.27
2024-02-19T16:47:40.201Z,70.94
2024-02-19T16:48:46.731Z,70.85
2024-02-19T16:49:53.508Z,71.21
2024-02-19T16:50:59.517Z,71.18
2024-02-19T16:52:06.064Z,71.68
2024-02-19T16:53:11.337Z,71.69
2024-02-19T16:54:22.469Z,71.57
2024-02-19T16:55:28.034Z,71.67
2024-02-19T16:56:34.647Z,72.12
2024-02-19T16:57:40.516Z,71.43
2024-02-19T16:58:47.233Z,72.35
2024-02-19T16:59:53.353Z,72.04
2024-02-19T17:01:00.460Z,71.79
2024-02-19T17:02:07.807Z,72.15
2024-02-19T17:03:16.485Z,71.47
2024-02-19T17:04:21.903Z,71.61
2024-02-19T17:05:28.729Z,71.54
2024-02-19T17:06:34.477Z,71.32
2024-02-19T17:07:41.313Z,71.54
2024-02-19T17:08:47.448Z,71.43
2024-02-19T17:09:52.640Z,71.55
2024-02-19T17:10:59.598Z,71.52
2024-02-19T17:12:06.744Z,71.75
2024-02-19T17:13:13.343Z,71.40
2024-02-19T17:14:19.313Z,71.71
2024-02-19T17:15:25.846Z,71.15
2024-02-19T17:16:31.737Z,71.13
2024-02-19T17:17:40.115Z,71.76
2024-02-19T17:18:45.474Z,71.59
2024-02-19T17:19:52.267Z,71.21
2024-02-19T17:20:57.610Z,71.55
2024-02-19T17:22:04.401Z,72.05
2024-02-19T17:23:15.983Z,71.95
2024-02-19T17:24:22.717Z,71.90
2024-02-19T17:25:28.221Z,72.06
2024-02-19T17:26:35.686Z,72.33
2024-02-19T17:27:40.958Z,72.33
2024-02-19T17:28:47.578Z,72.96
2024-02-19T17:29:52.836Z,71.99
2024-02-19T17:30:59.398Z,71.90
2024-02-19T17:32:04.713Z,71.96
2024-02-19T17:33:12.916Z,73.15
2024-02-19T17:34:19.705Z,71.95
2024-02-19T17:35:26.480Z,72.29
2024-02-19T17:36:31.779Z,71.73
2024-02-19T17:37:38.393Z,71.94
2024-02-19T17:38:43.966Z,72.05
2024-02-19T17:39:50.913Z,72.41
2024-02-19T17:41:00.711Z,72.02
2024-02-19T17:42:07.510Z,72.11
2024-02-19T17:43:14.311Z,71.81
2024-02-19T17:44:23.945Z,72.05
2024-02-19T17:45:29.334Z,71.64
2024-02-19T17:46:36.127Z,71.94
2024-02-19T17:47:41.505Z,72.28
2024-02-19T17:48:50.779Z,71.88
2024-02-19T17:49:56.670Z,71.46
2024-02-19T17:51:03.984Z,72.26
2024-02-19T17:52:10.075Z,71.42
2024-02-19T17:53:16.763Z,71.60
2024-02-19T17:54:22.652Z,71.73
2024-02-19T17:55:29.284Z,71.77
2024-02-19T17:56:34.595Z,71.60
2024-02-19T17:57:41.742Z,72.03
2024-02-19T17:58:47.087Z,71.31
2024-02-19T17:59:53.808Z,72.01
2024-02-19T18:00:59.158Z,71.76
2024-02-19T18:02:06.437Z,72.04
2024-02-19T18:03:11.945Z,71.98
2024-02-19T18:04:20.545Z,71.92
2024-02-19T18:05:27.063Z,72.20
2024-02-19T18:06:35.177Z,72.06
2024-02-19T18:07:42.324Z,72.44
2024-02-19T18:08:51.842Z,71.86
2024-02-19T18:09:58.138Z,72.18
2024-02-19T18:11:04.933Z,72.22
2024-02-19T18:12:11.213Z,71.98
2024-02-19T18:13:19.328Z,72.63
2024-02-19T18:14:24.832Z,72.41
2024-02-19T18:15:32.025Z,72.33
2024-02-19T18:16:40.534Z,72.32
2024-02-19T18:17:47.252Z,72.42
2024-02-19T18:18:52.944Z,72.11
2024-02-19T18:20:01.591Z,73.48
2024-02-19T18:21:11.194Z,72.32
2024-02-19T18:22:17.873Z,73.08
2024-02-19T18:23:24.424Z,73.19
2024-02-19T18:24:31.132Z,74.36
2024-02-19T18:25:36.478Z,73.70
2024-02-19T18:26:43.903Z,73.94
2024-02-19T18:27:49.221Z,73.40
2024-02-19T18:28:57.488Z,73.48
2024-02-19T18:30:03.044Z,73.81
2024-02-19T18:31:12.834Z,73.87
2024-02-19T18:32:18.994Z,73.80
2024-02-19T18:33:27.902Z,73.77
2024-02-19T18:34:37.012Z,73.62
2024-02-19T18:35:45.546Z,73.66
2024-02-19T18:36:51.208Z,74.09
2024-02-19T18:37:57.840Z,73.81
2024-02-19T18:39:03.188Z,73.48
2024-02-19T18:40:11.171Z,73.70
2024-02-19T18:41:16.617Z,73.53
2024-02-19T18:42:24.520Z,73.23
2024-02-19T18:43:30.097Z,73.11
2024-02-19T18:44:36.779Z,72.84
2024-02-19T18:45:43.852Z,73.11
2024-02-19T18:46:50.471Z,73.06
2024-02-19T18:47:55.895Z,72.91
2024-02-19T18:49:03.900Z,73.46
2024-02-19T18:50:10.421Z,73.24
2024-02-19T18:51:18.733Z,73.65
2024-02-19T18:52:24.127Z,73.46
2024-02-19T18:53:30.825Z,73.26
2024-02-19T18:54:36.449Z,72.82
2024-02-19T18:55:43.204Z,73.33
2024-02-19T18:56:48.670Z,73.23
2024-02-19T18:57:54.062Z,73.10
2024-02-19T18:59:00.726Z,73.46
2024-02-19T19:00:11.297Z,73.51
2024-02-19T19:01:17.983Z,73.43
2024-02-19T19:02:23.355Z,73.25
2024-02-19T19:03:30.120Z,73.21
2024-02-19T19:04:35.998Z,73.41
2024-02-19T19:05:42.914Z,73.15
2024-02-19T19:06:49.959Z,73.27
2024-02-19T19:07:57.016Z,72.81
2024-02-19T19:09:07.697Z,72.96
2024-02-19T19:10:14.672Z,72.94
2024-02-19T19:11:20.105Z,73.16
2024-02-19T19:12:26.988Z,73.08
2024-02-19T19:13:34.475Z,73.07
2024-02-19T19:14:41.243Z,73.12
2024-02-19T19:15:46.633Z,73.07
2024-02-19T19:16:54.190Z,73.14
2024-02-19T19:18:01.190Z,73.05
2024-02-19T19:19:10.185Z,72.97
2024-02-19T19:20:16.022Z,73.13
2024-02-19T19:21:23.069Z,73.22
2024-02-19T19:22:31.229Z,73.24
2024-02-19T19:23:37.883Z,73.33
2024-02-19T19:24:44.841Z,73.50
2024-02-19T19:25:51.534Z,73.68
2024-02-19T19:26:56.881Z,73.16
2024-02-19T19:28:03.696Z,73.64
2024-02-19T19:29:10.997Z,73.90
2024-02-19T19:30:17.790Z,73.50
2024-02-19T19:31:23.912Z,73.66
2024-02-19T19:32:31.608Z,73.83
2024-02-19T19:33:37.096Z,74.04
2024-02-19T19:34:44.023Z,73.62
2024-02-19T19:35:50.680Z,73.73
2024-02-19T19:36:57.950Z,73.84
2024-02-19T19:38:05.924Z,74.50
2024-02-19T19:39:13.665Z,75.15
2024-02-19T19:40:19.212Z,74.49
2024-02-19T19:41:25.896Z,74.56
2024-02-19T19:42:31.211Z,74.91
2024-02-19T19:43:38.317Z,74.20
2024-02-19T19:44:43.710Z,74.91
2024-02-19T19:45:51.810Z,74.98
2024-02-19T19:46:59.060Z,75.29
2024-02-19T19:48:05.784Z,74.68
2024-02-19T19:49:11.269Z,74.94
2024-02-19T19:50:21.086Z,74.49
2024-02-19T19:51:26.415Z,74.62
2024-02-19T19:52:35.690Z,74.63
2024-02-19T19:53:43.024Z,74.96
2024-02-19T19:54:51.875Z,74.95
2024-02-19T19:55:57.907Z,74.53
2024-02-19T19:57:04.643Z,75.05
2024-02-19T19:58:17.311Z,74.84
2024-02-19T19:59:28.879Z,74.42
2024-02-19T20:00:34.262Z,74.55
2024-02-19T20:01:41.386Z,74.30
2024-02-19T20:02:48.094Z,74.21
2024-02-19T20:03:54.807Z,73.97
2024-02-19T20:05:01.281Z,74.13
2024-02-19T20:06:08.365Z,73.99
2024-02-19T20:07:13.825Z,73.77
2024-02-19T20:08:20.489Z,74.25
2024-02-19T20:09:27.959Z,74.10
2024-02-19T20:10:35.024Z,74.35
2024-02-19T20:11:40.512Z,73.89
2024-02-19T20:12:47.251Z,73.98
2024-02-19T20:13:52.784Z,73.74
2024-02-19T20:15:00.716Z,73.63
2024-02-19T20:16:06.808Z,73.96
2024-02-19T20:17:14.000Z,73.86
2024-02-19T20:18:19.703Z,74.02
2024-02-19T20:19:26.631Z,74.07
2024-02-19T20:20:32.041Z,73.97
2024-02-19T20:21:38.805Z,73.84
2024-02-19T20:22:44.159Z,73.84
2024-02-19T20:23:50.905Z,74.01
2024-02-19T20:24:57.906Z,74.50
2024-02-19T20:26:04.535Z,74.23
2024-02-19T20:27:10.052Z,74.19
2024-02-19T20:28:16.945Z,73.92
2024-02-19T20:29:22.590Z,74.48
2024-02-19T20:30:29.216Z,73.92
2024-02-19T20:31:34.549Z,74.10
2024-02-19T20:32:41.437Z,74.01
2024-02-19T20:33:47.032Z,74.29
2024-02-19T20:34:54.124Z,74.47
2024-02-19T20:36:00.179Z,74.50
2024-02-19T20:37:07.101Z,74.36
2024-02-19T20:38:12.565Z,74.23
2024-02-19T20:39:19.183Z,74.48
2024-02-19T20:40:26.276Z,74.61
2024-02-19T20:41:32.913Z,74.26
2024-02-19T20:42:39.408Z,74.26
2024-02-19T20:43:46.339Z,74.13
2024-02-19T20:44:51.573Z,74.33
2024-02-19T20:45:58.344Z,73.93
2024-02-19T20:47:03.708Z,74.07
2024-02-19T20:48:10.949Z,74.15
2024-02-19T20:49:16.446Z,74.02
2024-02-19T20:50:23.261Z,74.03
2024-02-19T20:51:28.730Z,74.11
2024-02-19T20:52:35.433Z,73.95
2024-02-19T20:53:41.570Z,74.05
2024-02-19T20:54:48.287Z,73.83
2024-02-19T20:55:55.360Z,74.83
2024-02-19T20:57:02.067Z,74.42
2024-02-19T20:58:07.665Z,74.29